Ouray, Utah
Current Conditions -  °F | °C
As of 1:08 PM on Sunday 21 Dec 2014 (Local Time) from KVEL Reporting Station
Broken Clouds Broken Clouds  
Wind Chill: 33°   Ceiling: 1200
Heat Index: 33°   Visibility: 9mi
Dew Point: 28°   Wind: 3mph
Humidity: 82%   Direction: 100°E
Pressure: 29.86"   Gusts: NA
Location:  40.2958°N, 109.84°W
Report Text: KVEL 212008Z AUTO 10003KT 9SM BKN012 01/M02 A2986 RMK AO2 T00061022
Loading
Personal Weather Stations






























Interactive Weather Map New forecast layout! Learn more

10-Day Weather Forecast

Advertisements
Track Severe Weather on mobile